createdAt,value
2019-02-22T00:00:50.983Z,102641.81
2019-02-22T00:01:58.467Z,102636.04
2019-02-22T00:03:00.856Z,102630.83
2019-02-22T00:04:03.077Z,102647.39
2019-02-22T00:05:05.291Z,102650.36
2019-02-22T00:06:07.543Z,102648.32
2019-02-22T00:07:09.748Z,102649.63
2019-02-22T00:08:11.963Z,102650.55
2019-02-22T00:09:14.170Z,102648.32
2019-02-22T00:10:16.409Z,102642.18
2019-02-22T00:11:18.665Z,102646.78
2019-02-22T00:12:20.875Z,102647.02
2019-02-22T00:13:23.105Z,102646.09
2019-02-22T00:14:25.315Z,102648.69
2019-02-22T00:15:27.525Z,102649.99
2019-02-22T00:16:32.310Z,102649.63
2019-02-22T00:17:33.635Z,102653.53
2019-02-22T00:18:35.835Z,102657.80
2019-02-22T00:19:38.051Z,102661.34
2019-02-22T00:20:41.251Z,102661.70
2019-02-22T00:21:43.714Z,102666.18
2019-02-22T00:22:45.931Z,102670.45
2019-02-22T00:23:51.476Z,102666.91
2019-02-22T00:24:53.691Z,102672.69
2019-02-22T00:25:56.058Z,102666.91
2019-02-22T00:26:58.307Z,102673.98
2019-02-22T00:28:01.795Z,102670.08
2019-02-22T00:29:04.012Z,102679.20
2019-02-22T00:30:06.241Z,102676.96
2019-02-22T00:31:08.440Z,102678.83
2019-02-22T00:32:10.683Z,102684.41
2019-02-22T00:33:12.903Z,102689.24
2019-02-22T00:34:15.140Z,102688.68
2019-02-22T00:35:17.419Z,102696.69
2019-02-22T00:36:19.675Z,102696.69
2019-02-22T00:37:21.925Z,102706.73
2019-02-22T00:38:26.857Z,102707.10
2019-02-22T00:39:28.029Z,102703.56
2019-02-22T00:40:30.248Z,102706.73
2019-02-22T00:41:32.469Z,102711.01
2019-02-22T00:42:34.695Z,102707.47
2019-02-22T00:43:36.913Z,102712.31
2019-02-22T00:44:39.117Z,102716.58
2019-02-22T00:45:41.315Z,102724.03
2019-02-22T00:46:43.535Z,102723.09
2019-02-22T00:47:45.784Z,102731.84
2019-02-22T00:48:48.031Z,102731.47
2019-02-22T00:49:50.251Z,102730.53
2019-02-22T00:50:52.481Z,102735.75
2019-02-22T00:51:54.651Z,102734.07
2019-02-22T00:52:56.914Z,102731.47
2019-02-22T00:53:59.122Z,102733.51
2019-02-22T00:55:01.383Z,102739.65
2019-02-22T00:56:03.591Z,102739.08
2019-02-22T00:57:05.832Z,102737.05
2019-02-22T00:58:09.969Z,102736.85
2019-02-22T00:59:12.223Z,102734.44
2019-02-22T01:00:14.434Z,102740.39
2019-02-22T01:01:16.669Z,102740.75
2019-02-22T01:02:18.873Z,102747.83
2019-02-22T01:03:21.131Z,102752.67
2019-02-22T01:04:23.331Z,102755.27
2019-02-22T01:05:25.551Z,102765.69
2019-02-22T01:06:27.800Z,102766.63
2019-02-22T01:07:30.126Z,102761.41
2019-02-22T01:08:32.364Z,102759.55
2019-02-22T01:09:34.578Z,102767.92
2019-02-22T01:10:36.799Z,102772.39
2019-02-22T01:11:39.005Z,102773.50
2019-02-22T01:12:41.243Z,102777.77
2019-02-22T01:13:43.515Z,102784.84
2019-02-22T01:14:45.722Z,102788.39
2019-02-22T01:15:47.925Z,102793.40
2019-02-22T01:16:50.445Z,102797.30
2019-02-22T01:17:52.673Z,102792.09
2019-02-22T01:18:54.884Z,102789.86
2019-02-22T01:19:57.098Z,102789.86
2019-02-22T01:20:59.318Z,102795.63
2019-02-22T01:22:01.530Z,102803.08
2019-02-22T01:23:03.738Z,102799.91
2019-02-22T01:24:05.963Z,102797.67
2019-02-22T01:25:08.174Z,102806.78
2019-02-22T01:26:10.384Z,102814.59
2019-02-22T01:27:12.592Z,102814.59
2019-02-22T01:28:14.808Z,102813.30
2019-02-22T01:29:17.022Z,102816.27
2019-02-22T01:30:19.261Z,102819.23
2019-02-22T01:31:21.461Z,102819.23
2019-02-22T01:32:23.686Z,102830.59
2019-02-22T01:33:25.900Z,102823.14
2019-02-22T01:34:28.102Z,102836.00
2019-02-22T01:35:30.312Z,102838.03
2019-02-22T01:36:32.520Z,102838.97
2019-02-22T01:37:34.731Z,102842.67
2019-02-22T01:38:36.967Z,102845.28
2019-02-22T01:39:39.210Z,102849.19
2019-02-22T01:40:43.977Z,102854.95
2019-02-22T01:41:45.326Z,102850.48
2019-02-22T01:42:47.524Z,102851.19
2019-02-22T01:43:49.738Z,102843.97
2019-02-22T01:44:51.965Z,102845.64
2019-02-22T01:45:54.205Z,102847.88
2019-02-22T01:46:56.419Z,102849.55
2019-02-22T01:47:58.632Z,102849.19
2019-02-22T01:49:00.878Z,102852.48
2019-02-22T01:50:03.119Z,102853.09
2019-02-22T01:51:05.332Z,102848.58
2019-02-22T01:52:07.544Z,102850.85
2019-02-22T01:53:09.785Z,102848.95
2019-02-22T01:54:12.021Z,102851.92
2019-02-22T01:55:14.205Z,102856.56
2019-02-22T01:56:16.409Z,102857.69
2019-02-22T01:57:18.720Z,102863.64
2019-02-22T01:58:20.916Z,102860.09
2019-02-22T01:59:23.158Z,102861.03
2019-02-22T02:00:25.371Z,102870.14
2019-02-22T02:01:27.578Z,102865.88
2019-02-22T02:02:29.789Z,102866.97
2019-02-22T02:03:32.008Z,102868.28
2019-02-22T02:04:34.242Z,102871.25
2019-02-22T02:05:36.442Z,102870.31
2019-02-22T02:06:38.670Z,102867.70
2019-02-22T02:07:40.885Z,102875.52
2019-02-22T02:08:43.102Z,102877.39
2019-02-22T02:09:45.340Z,102879.99
2019-02-22T02:10:54.153Z,102887.23
2019-02-22T02:11:51.390Z,102886.50
2019-02-22T02:12:53.524Z,102898.42
2019-02-22T02:13:55.740Z,102894.31
2019-02-22T02:15:00.934Z,102896.55
2019-02-22T02:16:03.115Z,102888.54
2019-02-22T02:17:05.310Z,102887.60
2019-02-22T02:18:07.499Z,102901.55
2019-02-22T02:19:09.722Z,102900.63
2019-02-22T02:20:12.040Z,102896.72
2019-02-22T02:21:14.208Z,102897.45
2019-02-22T02:22:16.402Z,102900.98
2019-02-22T02:23:18.610Z,102893.55
2019-02-22T02:24:20.810Z,102897.81
2019-02-22T02:25:23.090Z,102898.02
2019-02-22T02:26:25.302Z,102903.80
2019-02-22T02:27:27.510Z,102898.02
2019-02-22T02:28:29.718Z,102904.73
2019-02-22T02:29:31.879Z,102903.42
2019-02-22T02:30:34.142Z,102895.78
2019-02-22T02:31:36.369Z,102899.32
2019-02-22T02:32:38.595Z,102896.72
2019-02-22T02:33:40.840Z,102895.05
2019-02-22T02:34:43.006Z,102897.28
2019-02-22T02:35:45.265Z,102891.14
2019-02-22T02:36:47.475Z,102893.75
2019-02-22T02:37:49.795Z,102894.31
2019-02-22T02:38:52.009Z,102893.38
2019-02-22T02:39:54.209Z,102891.14
2019-02-22T02:41:08.115Z,102893.38
2019-02-22T02:42:00.315Z,102891.51
2019-02-22T02:43:02.516Z,102898.22
2019-02-22T02:44:04.825Z,102898.78
2019-02-22T02:45:07.041Z,102897.85
2019-02-22T02:46:11.008Z,102900.45
2019-02-22T02:47:13.219Z,102909.20
2019-02-22T02:48:15.444Z,102908.27
2019-02-22T02:49:17.664Z,102910.67
2019-02-22T02:50:19.887Z,102908.63
2019-02-22T02:51:22.176Z,102914.78
2019-02-22T02:52:24.408Z,102924.83
2019-02-22T02:53:26.622Z,102924.83
2019-02-22T02:54:28.845Z,102928.73
2019-02-22T02:55:31.053Z,102933.20
2019-02-22T02:56:33.211Z,102934.17
2019-02-22T02:57:35.437Z,102931.91
2019-02-22T02:58:37.669Z,102936.78
2019-02-22T02:59:42.823Z,102938.09
2019-02-22T03:00:45.175Z,102939.72
2019-02-22T03:01:47.443Z,102933.20
2019-02-22T03:02:49.733Z,102934.17
2019-02-22T03:03:51.929Z,102939.39
2019-02-22T03:04:54.162Z,102942.32
2019-02-22T03:06:21.202Z,102945.89
2019-02-22T03:07:41.124Z,102946.22
2019-02-22T03:08:43.323Z,102948.83
2019-02-22T03:09:45.555Z,102952.41
2019-02-22T03:10:47.752Z,102958.67
2019-02-22T03:11:49.971Z,102961.52
2019-02-22T03:12:52.214Z,102963.76
2019-02-22T03:13:54.415Z,102968.36
2019-02-22T03:14:56.727Z,102968.36
2019-02-22T03:15:58.853Z,102978.44
2019-02-22T03:17:01.111Z,102980.68
2019-02-22T03:18:03.330Z,102983.28
2019-02-22T03:19:05.563Z,102989.43
2019-02-22T03:20:07.770Z,102997.24
2019-02-22T03:21:09.985Z,102990.49
2019-02-22T03:22:12.263Z,102992.03
2019-02-22T03:23:14.536Z,102995.00
2019-02-22T03:24:16.802Z,102999.27
2019-02-22T03:25:18.999Z,102995.38
2019-02-22T03:26:21.235Z,103006.36
2019-02-22T03:27:23.528Z,103007.42
2019-02-22T03:28:25.726Z,103003.67
2019-02-22T03:29:27.932Z,103006.11
2019-02-22T03:30:30.140Z,103010.39
2019-02-22T03:31:32.350Z,103019.14
2019-02-22T03:32:34.600Z,103018.20
2019-02-22T03:33:36.795Z,103020.44
2019-02-22T03:34:39.018Z,103021.41
2019-02-22T03:35:41.248Z,103016.53
2019-02-22T03:36:43.455Z,103020.44
2019-02-22T03:37:45.735Z,103021.73
2019-02-22T03:38:48.033Z,103021.41
2019-02-22T03:39:50.370Z,103025.64
2019-02-22T03:40:52.597Z,103025.08
2019-02-22T03:41:54.835Z,103030.52
2019-02-22T03:42:57.073Z,103034.43
2019-02-22T03:43:59.280Z,103033.83
2019-02-22T03:45:01.512Z,103035.49
2019-02-22T03:46:03.727Z,103041.27
2019-02-22T03:47:05.927Z,103038.66
2019-02-22T03:48:08.176Z,103047.45
2019-02-22T03:49:10.404Z,103054.29
2019-02-22T03:50:12.617Z,103056.56
2019-02-22T03:51:14.829Z,103064.02
2019-02-22T03:52:48.100Z,103066.01
2019-02-22T03:53:57.278Z,103074.79
2019-02-22T03:54:58.332Z,103075.73
2019-02-22T03:56:00.549Z,103082.23
2019-02-22T03:57:04.714Z,103080.94
2019-02-22T03:58:06.644Z,103078.09
2019-02-22T03:59:08.945Z,103083.54
2019-02-22T04:00:11.154Z,103080.94
2019-02-22T04:01:13.374Z,103080.69
2019-02-22T04:02:15.600Z,103075.48
2019-02-22T04:03:17.933Z,103078.83
2019-02-22T04:04:20.100Z,103082.16
2019-02-22T04:05:22.711Z,103082.36
2019-02-22T04:06:24.911Z,103086.27
2019-02-22T04:07:30.175Z,103089.81
2019-02-22T04:08:32.396Z,103085.91
2019-02-22T04:09:34.800Z,103089.81
2019-02-22T04:10:37.113Z,103093.14
2019-02-22T04:11:45.587Z,103090.91
2019-02-22T04:12:43.236Z,103099.28
2019-02-22T04:13:45.441Z,103103.92
2019-02-22T04:14:47.677Z,103114.34
2019-02-22T04:15:50.089Z,103107.47
2019-02-22T04:16:55.033Z,103120.12
2019-02-22T04:17:57.237Z,103118.82
2019-02-22T04:18:59.440Z,103120.36
2019-02-22T04:20:01.719Z,103119.75
2019-02-22T04:21:04.023Z,103119.55
2019-02-22T04:22:06.149Z,103120.12
2019-02-22T04:23:08.385Z,103123.09
2019-02-22T04:24:10.622Z,103121.42
2019-02-22T04:25:12.851Z,103123.30
2019-02-22T04:26:15.054Z,103121.05
2019-02-22T04:27:17.255Z,103126.06
2019-02-22T04:28:19.565Z,103130.91
2019-02-22T04:29:21.776Z,103131.27
2019-02-22T04:30:24.040Z,103135.17
2019-02-22T04:31:26.257Z,103138.14
2019-02-22T04:32:28.573Z,103135.33
2019-02-22T04:33:30.784Z,103141.11
2019-02-22T04:34:32.990Z,103143.34
2019-02-22T04:35:35.297Z,103141.68
2019-02-22T04:36:37.523Z,103152.09
2019-02-22T04:37:39.745Z,103149.49
2019-02-22T04:38:41.951Z,103162.15
2019-02-22T04:39:44.193Z,103159.55
2019-02-22T04:40:49.188Z,103161.58
2019-02-22T04:41:58.162Z,103168.45
2019-02-22T04:42:55.289Z,103172.36
2019-02-22T04:43:57.488Z,103173.66
2019-02-22T04:44:59.836Z,103178.14
2019-02-22T04:46:02.085Z,103177.41
2019-02-22T04:47:04.318Z,103185.22
2019-02-22T04:48:09.596Z,103190.80
2019-02-22T04:49:11.806Z,103188.77
2019-02-22T04:50:14.035Z,103196.00
2019-02-22T04:51:16.256Z,103200.64
2019-02-22T04:52:18.483Z,103196.36
2019-02-22T04:53:20.694Z,103196.52
2019-02-22T04:54:25.740Z,103197.83
2019-02-22T04:55:29.342Z,103205.48
2019-02-22T04:56:31.986Z,103200.64
2019-02-22T04:57:34.207Z,103202.87
2019-02-22T04:58:36.515Z,103209.39
2019-02-22T04:59:38.908Z,103205.84
2019-02-22T05:00:42.286Z,103210.11
2019-02-22T05:01:44.453Z,103207.72
2019-02-22T05:02:46.682Z,103216.10
2019-02-22T05:03:48.926Z,103213.50
2019-02-22T05:04:51.135Z,103215.89
2019-02-22T05:05:53.340Z,103218.13
2019-02-22T05:06:55.692Z,103209.59
2019-02-22T05:07:57.982Z,103207.35
2019-02-22T05:09:00.231Z,103208.45
2019-02-22T05:10:05.501Z,103211.98
2019-02-22T05:11:07.715Z,103211.78
2019-02-22T05:12:11.153Z,103225.38
2019-02-22T05:13:13.644Z,103224.07
2019-02-22T05:14:15.934Z,103230.79
2019-02-22T05:15:18.128Z,103235.06
2019-02-22T05:16:20.334Z,103240.27
2019-02-22T05:17:22.556Z,103238.60
2019-02-22T05:18:25.894Z,103237.30
2019-02-22T05:19:28.082Z,103243.45
2019-02-22T05:20:30.267Z,103246.05
2019-02-22T05:21:32.494Z,103247.35
2019-02-22T05:22:34.747Z,103255.89
2019-02-22T05:23:36.993Z,103253.86
2019-02-22T05:24:39.208Z,103261.67
2019-02-22T05:25:41.579Z,103261.10
2019-02-22T05:26:43.806Z,103256.83
2019-02-22T05:27:46.049Z,103259.80
2019-02-22T05:28:48.264Z,103268.55
2019-02-22T05:29:50.502Z,103272.45
2019-02-22T05:30:52.755Z,103269.28
2019-02-22T05:31:54.957Z,103272.45
2019-02-22T05:32:57.203Z,103268.55
2019-02-22T05:33:59.433Z,103267.25
2019-02-22T05:35:01.665Z,103266.31
2019-02-22T05:36:03.936Z,103270.58
2019-02-22T05:37:06.163Z,103269.64
2019-02-22T05:38:08.391Z,103264.44
2019-02-22T05:39:18.987Z,103260.53
2019-02-22T05:40:14.499Z,103260.89
2019-02-22T05:41:16.715Z,103265.38
2019-02-22T05:42:22.766Z,103265.38
2019-02-22T05:43:22.803Z,103265.95
2019-02-22T05:44:25.093Z,103268.91
2019-02-22T05:45:27.299Z,103267.97
2019-02-22T05:46:29.586Z,103273.19
2019-02-22T05:47:32.783Z,103274.13
2019-02-22T05:48:34.957Z,103276.15
2019-02-22T05:49:37.186Z,103285.48
2019-02-22T05:50:39.431Z,103287.14
2019-02-22T05:51:45.889Z,103291.63
2019-02-22T05:52:45.507Z,103294.95
2019-02-22T05:53:47.745Z,103305.58
2019-02-22T05:54:49.958Z,103306.55
2019-02-22T05:55:52.187Z,103311.41
2019-02-22T05:56:55.311Z,103311.41
2019-02-22T05:57:57.626Z,103307.13
2019-02-22T05:58:59.862Z,103321.66
2019-02-22T06:00:02.068Z,103323.91
2019-02-22T06:01:06.780Z,103331.72
2019-02-22T06:02:08.147Z,103331.72
2019-02-22T06:03:10.383Z,103344.74
2019-02-22T06:04:12.642Z,103341.77
2019-02-22T06:05:14.852Z,103349.02
2019-02-22T06:06:17.064Z,103352.55
2019-02-22T06:07:19.267Z,103360.73
2019-02-22T06:08:21.496Z,103353.64
2019-02-22T06:09:23.733Z,103363.91
2019-02-22T06:10:25.934Z,103369.48
2019-02-22T06:11:28.134Z,103371.51
2019-02-22T06:12:34.541Z,103368.55
2019-02-22T06:13:34.213Z,103382.14
2019-02-22T06:14:36.432Z,103376.36
2019-02-22T06:15:38.774Z,103383.44
2019-02-22T06:16:47.111Z,103381.56
2019-02-22T06:17:49.315Z,103383.23
2019-02-22T06:18:51.549Z,103384.53
2019-02-22T06:19:53.783Z,103387.86
2019-02-22T06:20:55.990Z,103396.61
2019-02-22T06:21:58.234Z,103396.61
2019-02-22T06:23:00.563Z,103400.52
2019-02-22T06:24:03.098Z,103405.37
2019-02-22T06:25:07.736Z,103406.67
2019-02-22T06:26:09.944Z,103410.21
2019-02-22T06:27:12.148Z,103410.00
2019-02-22T06:28:14.543Z,103408.70
2019-02-22T06:29:16.844Z,103415.57
2019-02-22T06:30:19.077Z,103415.32
2019-02-22T06:31:21.293Z,103411.41
2019-02-22T06:32:23.547Z,103418.53
2019-02-22T06:33:25.997Z,103421.47
2019-02-22T06:34:28.245Z,103415.69
2019-02-22T06:35:30.504Z,103418.65
2019-02-22T06:36:32.729Z,103411.41
2019-02-22T06:37:34.925Z,103418.65
2019-02-22T06:38:37.161Z,103420.89
2019-02-22T06:39:39.396Z,103428.34
2019-02-22T06:40:41.631Z,103428.12
2019-02-22T06:41:43.872Z,103438.55
2019-02-22T06:42:46.374Z,103441.14
2019-02-22T06:43:48.801Z,103448.95
2019-02-22T06:44:51.010Z,103450.63
2019-02-22T06:45:53.341Z,103453.80
2019-02-22T06:46:55.575Z,103449.32
2019-02-22T06:47:57.896Z,103457.13
2019-02-22T06:49:00.091Z,103460.10
2019-02-22T06:50:02.371Z,103457.50
2019-02-22T06:51:05.624Z,103454.89
2019-02-22T06:52:07.831Z,103458.08
2019-02-22T06:53:10.039Z,103458.80
2019-02-22T06:54:12.255Z,103456.34
2019-02-22T06:55:14.465Z,103466.03
2019-02-22T06:56:16.706Z,103469.00
2019-02-22T06:57:18.920Z,103467.34
2019-02-22T06:58:21.116Z,103471.82
2019-02-22T06:59:23.316Z,103473.84
2019-02-22T07:00:27.754Z,103470.66
2019-02-22T07:01:29.991Z,103472.55
2019-02-22T07:02:32.207Z,103472.91
2019-02-22T07:03:34.416Z,103476.45
2019-02-22T07:04:36.632Z,103479.41
2019-02-22T07:05:38.855Z,103475.30
2019-02-22T07:06:41.101Z,103478.27
2019-02-22T07:07:43.300Z,103480.14
2019-02-22T07:08:45.508Z,103479.56
2019-02-22T07:09:47.762Z,103484.41
2019-02-22T07:11:12.043Z,103490.56
2019-02-22T07:12:18.507Z,103494.83
2019-02-22T07:13:20.712Z,103497.43
2019-02-22T07:14:22.933Z,103499.31
2019-02-22T07:15:25.132Z,103507.84
2019-02-22T07:16:27.339Z,103510.09
2019-02-22T07:17:29.576Z,103509.51
2019-02-22T07:18:31.793Z,103511.75
2019-02-22T07:19:34.004Z,103517.69
2019-02-22T07:20:36.204Z,103515.66
2019-02-22T07:21:51.652Z,103503.94
2019-02-22T07:22:42.308Z,103512.69
2019-02-22T07:23:44.502Z,103515.30
2019-02-22T07:24:46.714Z,103517.90
2019-02-22T07:25:48.934Z,103511.75
2019-02-22T07:26:51.150Z,103511.97
2019-02-22T07:27:53.425Z,103514.72
2019-02-22T07:28:55.651Z,103516.74
2019-02-22T07:29:57.850Z,103519.70
2019-02-22T07:31:00.049Z,103528.67
2019-02-22T07:32:05.831Z,103521.80
2019-02-22T07:33:06.128Z,103523.47
2019-02-22T07:34:08.352Z,103527.52
2019-02-22T07:35:10.582Z,103528.24
2019-02-22T07:36:12.791Z,103532.36
2019-02-22T07:37:15.003Z,103536.05
2019-02-22T07:38:17.256Z,103538.30
2019-02-22T07:39:27.485Z,103540.91
2019-02-22T07:40:23.332Z,103546.69
2019-02-22T07:41:25.537Z,103556.89
2019-02-22T07:42:27.672Z,103552.98
2019-02-22T07:43:29.911Z,103558.19
2019-02-22T07:44:32.225Z,103568.39
2019-02-22T07:45:34.438Z,103561.52
2019-02-22T07:46:36.663Z,103565.42
2019-02-22T07:47:38.953Z,103555.37
2019-02-22T07:48:41.235Z,103559.85
2019-02-22T07:49:43.496Z,103563.39
2019-02-22T07:50:56.530Z,103560.22
2019-02-22T07:51:49.570Z,103559.63
2019-02-22T07:52:51.786Z,103566.00
2019-02-22T07:53:53.998Z,103563.76
2019-02-22T07:54:56.216Z,103566.00
2019-02-22T07:55:58.421Z,103572.51
2019-02-22T07:57:00.637Z,103581.12
2019-02-22T07:58:02.919Z,103579.45
2019-02-22T07:59:05.139Z,103591.39
2019-02-22T08:00:09.439Z,103595.52
2019-02-22T08:01:13.049Z,103600.00
2019-02-22T08:02:15.243Z,103598.92
2019-02-22T08:03:17.461Z,103594.65
2019-02-22T08:04:19.695Z,103602.14
2019-02-22T08:05:21.912Z,103601.85
2019-02-22T08:06:24.104Z,103606.34
2019-02-22T08:07:26.315Z,103608.58
2019-02-22T08:08:28.580Z,103602.07
2019-02-22T08:09:30.811Z,103614.23
2019-02-22T08:10:33.015Z,103616.83
2019-02-22T08:11:35.227Z,103617.20
2019-02-22T08:12:37.442Z,103622.41
2019-02-22T08:13:39.680Z,103627.61
2019-02-22T08:14:41.873Z,103619.22
2019-02-22T08:15:44.090Z,103620.88
2019-02-22T08:16:48.372Z,103622.19
2019-02-22T08:17:50.582Z,103624.93
2019-02-22T08:19:01.142Z,103634.05
2019-02-22T08:19:56.880Z,103638.31
2019-02-22T08:20:59.082Z,103631.44
2019-02-22T08:22:03.418Z,103631.22
2019-02-22T08:23:05.167Z,103640.70
2019-02-22T08:24:07.380Z,103648.52
2019-02-22T08:25:12.443Z,103657.05
2019-02-22T08:26:14.657Z,103657.63
2019-02-22T08:27:16.877Z,103665.44
2019-02-22T08:28:19.084Z,103665.44
2019-02-22T08:29:21.304Z,103668.19
2019-02-22T08:30:23.503Z,103660.37
2019-02-22T08:31:25.733Z,103662.36
2019-02-22T08:32:27.929Z,103667.94
2019-02-22T08:33:30.137Z,103672.78
2019-02-22T08:34:32.360Z,103672.56
2019-02-22T08:35:34.582Z,103675.52
2019-02-22T08:36:36.805Z,103683.70
2019-02-22T08:37:39.016Z,103677.55
2019-02-22T08:38:41.327Z,103667.85
2019-02-22T08:39:43.525Z,103668.80
2019-02-22T08:40:45.723Z,103677.33
2019-02-22T08:41:47.945Z,103675.45
2019-02-22T08:42:50.151Z,103678.05
2019-02-22T08:43:52.527Z,103677.11
2019-02-22T08:44:54.725Z,103672.98
2019-02-22T08:45:56.993Z,103662.78
2019-02-22T08:46:59.192Z,103667.64
2019-02-22T08:48:01.501Z,103671.68
2019-02-22T08:49:03.711Z,103665.39
2019-02-22T08:50:05.917Z,103672.27
2019-02-22T08:51:08.119Z,103668.72
2019-02-22T08:52:10.343Z,103676.53
2019-02-22T08:53:12.732Z,103660.69
2019-02-22T08:54:14.992Z,103657.86
2019-02-22T08:55:17.200Z,103660.24
2019-02-22T08:56:19.431Z,103659.63
2019-02-22T08:57:21.643Z,103654.09
2019-02-22T08:58:23.849Z,103660.92
2019-02-22T08:59:26.109Z,103662.95
2019-02-22T09:00:28.325Z,103659.77
2019-02-22T09:01:30.535Z,103668.30
2019-02-22T09:02:32.761Z,103659.91
2019-02-22T09:03:35.284Z,103666.05
2019-02-22T09:04:37.589Z,103663.81
2019-02-22T09:05:39.807Z,103672.34
2019-02-22T09:06:42.039Z,103665.25
2019-02-22T09:07:44.258Z,103679.22
2019-02-22T09:08:46.514Z,103670.82
2019-02-22T09:09:48.787Z,103668.58
2019-02-22T09:11:00.109Z,103678.99
2019-02-22T09:11:57.475Z,103680.30
2019-02-22T09:12:58.744Z,103675.45
2019-02-22T09:14:01.041Z,103686.80
2019-02-22T09:15:03.281Z,103680.66
2019-02-22T09:16:05.492Z,103683.98
2019-02-22T09:17:07.713Z,103678.77
2019-02-22T09:18:10.025Z,103687.88
2019-02-22T09:19:12.213Z,103691.56
2019-02-22T09:20:14.434Z,103689.32
2019-02-22T09:21:16.687Z,103685.52
2019-02-22T09:22:22.961Z,103694.89
2019-02-22T09:23:22.762Z,103689.78
2019-02-22T09:24:24.968Z,103694.63
2019-02-22T09:25:27.200Z,103697.59
2019-02-22T09:26:29.517Z,103695.35
2019-02-22T09:27:31.727Z,103699.25
2019-02-22T09:28:33.938Z,103708.50
2019-02-22T09:29:36.141Z,103707.78
2019-02-22T09:30:38.383Z,103712.41
2019-02-22T09:31:40.594Z,103709.94
2019-02-22T09:32:42.819Z,103720.36
2019-02-22T09:33:45.030Z,103712.91
2019-02-22T09:34:47.252Z,103709.00
2019-02-22T09:35:49.485Z,103712.55
2019-02-22T09:36:51.697Z,103713.48
2019-02-22T09:37:53.965Z,103716.31
2019-02-22T09:38:56.176Z,103727.53
2019-02-22T09:40:00.687Z,103726.12
2019-02-22T09:41:02.886Z,103728.23
2019-02-22T09:42:05.111Z,103733.31
2019-02-22T09:43:07.328Z,103733.03
2019-02-22T09:44:09.534Z,103731.37
2019-02-22T09:45:11.742Z,103733.02
2019-02-22T09:46:14.148Z,103744.81
2019-02-22T09:47:16.364Z,103732.02
2019-02-22T09:48:18.578Z,103730.58
2019-02-22T09:49:20.794Z,103738.97
2019-02-22T09:50:23.078Z,103745.96
2019-02-22T09:51:25.321Z,103745.33
2019-02-22T09:52:27.539Z,103750.98
2019-02-22T09:53:29.726Z,103751.20
2019-02-22T09:54:31.950Z,103752.72
2019-02-22T09:55:34.170Z,103757.47
2019-02-22T09:56:36.405Z,103761.73
2019-02-22T09:57:38.602Z,103764.92
2019-02-22T09:58:40.802Z,103768.83
2019-02-22T09:59:43.013Z,103769.27
2019-02-22T10:00:45.226Z,103767.97
2019-02-22T10:01:47.507Z,103776.01
2019-02-22T10:02:49.719Z,103781.22
2019-02-22T10:03:51.932Z,103787.38
2019-02-22T10:04:55.545Z,103793.02
2019-02-22T10:05:57.916Z,103790.18
2019-02-22T10:07:03.224Z,103803.59
2019-02-22T10:08:05.431Z,103803.91
2019-02-22T10:09:07.644Z,103810.39
2019-02-22T10:10:09.858Z,103802.41
2019-02-22T10:11:12.047Z,103797.27
2019-02-22T10:12:14.270Z,103793.33
2019-02-22T10:13:16.480Z,103792.58
2019-02-22T10:14:18.683Z,103786.27
2019-02-22T10:15:20.902Z,103790.00
2019-02-22T10:16:23.121Z,103791.81
2019-02-22T10:17:25.368Z,103794.26
2019-02-22T10:18:28.590Z,103787.36
2019-02-22T10:19:30.792Z,103791.85
2019-02-22T10:20:33.051Z,103796.77
2019-02-22T10:21:35.250Z,103795.47
2019-02-22T10:22:37.480Z,103799.80
2019-02-22T10:23:39.704Z,103795.75
2019-02-22T10:24:41.918Z,103792.98
2019-02-22T10:25:44.116Z,103802.22
2019-02-22T10:26:46.436Z,103802.85
2019-02-22T10:27:51.470Z,103799.48
2019-02-22T10:28:53.682Z,103808.23
2019-02-22T10:29:55.879Z,103810.07
2019-02-22T10:30:58.094Z,103810.33
2019-02-22T10:32:00.320Z,103818.59
2019-02-22T10:33:02.542Z,103813.78
2019-02-22T10:34:04.790Z,103813.19
2019-02-22T10:35:06.973Z,103811.02
2019-02-22T10:36:09.182Z,103818.12
2019-02-22T10:37:11.393Z,103816.09
2019-02-22T10:38:13.635Z,103816.68
2019-02-22T10:39:15.840Z,103815.38
2019-02-22T10:40:18.191Z,103821.75
2019-02-22T10:41:20.380Z,103812.89
2019-02-22T10:42:22.587Z,103821.38
2019-02-22T10:43:24.831Z,103816.39
2019-02-22T10:44:27.050Z,103819.36
2019-02-22T10:45:29.261Z,103814.73
2019-02-22T10:46:31.471Z,103814.73
2019-02-22T10:47:33.886Z,103816.75
2019-02-22T10:48:36.134Z,103816.75
2019-02-22T10:49:38.330Z,103821.02
2019-02-22T10:50:40.524Z,103827.31
2019-02-22T10:51:42.733Z,103818.91
2019-02-22T10:52:44.933Z,103816.66
2019-02-22T10:53:47.162Z,103817.83
2019-02-22T10:54:49.371Z,103810.38
2019-02-22T10:55:51.580Z,103818.41
2019-02-22T10:56:53.801Z,103814.73
2019-02-22T10:57:56.006Z,103814.50
2019-02-22T10:58:58.256Z,103811.18
2019-02-22T11:00:01.889Z,103814.00
2019-02-22T11:01:04.163Z,103809.87
2019-02-22T11:02:06.374Z,103810.23
2019-02-22T11:03:08.665Z,103803.14
2019-02-22T11:04:10.894Z,103808.71
2019-02-22T11:05:13.095Z,103801.62
2019-02-22T11:06:15.304Z,103799.51
2019-02-22T11:07:17.510Z,103800.33
2019-02-22T11:08:19.716Z,103794.90
2019-02-22T11:09:21.948Z,103799.16
2019-02-22T11:10:24.210Z,103810.30
2019-02-22T11:11:26.423Z,103810.80
2019-02-22T11:12:28.635Z,103815.42
2019-02-22T11:13:32.608Z,103821.36
2019-02-22T11:14:34.813Z,103825.27
2019-02-22T11:15:37.014Z,103826.70
2019-02-22T11:16:41.399Z,103828.36
2019-02-22T11:17:43.691Z,103824.45
2019-02-22T11:18:45.888Z,103825.28
2019-02-22T11:19:48.109Z,103817.47
2019-02-22T11:20:50.321Z,103821.38
2019-02-22T11:21:52.541Z,103823.97
2019-02-22T11:22:54.751Z,103819.70
2019-02-22T11:23:56.961Z,103827.88
2019-02-22T11:24:59.193Z,103824.47
2019-02-22T11:26:01.401Z,103817.02
2019-02-22T11:27:03.703Z,103815.72
2019-02-22T11:28:05.908Z,103815.36
2019-02-22T11:29:08.115Z,103823.30
2019-02-22T11:30:10.353Z,103819.39
2019-02-22T11:31:14.865Z,103825.19
2019-02-22T11:32:18.549Z,103828.87
2019-02-22T11:33:20.294Z,103825.69
2019-02-22T11:34:24.316Z,103831.25
2019-02-22T11:35:26.530Z,103833.27
2019-02-22T11:36:28.731Z,103835.52
2019-02-22T11:37:31.487Z,103835.88
2019-02-22T11:38:34.489Z,103834.93
2019-02-22T11:39:36.664Z,103845.70
2019-02-22T11:40:38.871Z,103844.77
2019-02-22T11:41:41.393Z,103851.86
2019-02-22T11:42:43.602Z,103849.71
2019-02-22T11:43:45.925Z,103852.58
2019-02-22T11:44:48.180Z,103851.99
2019-02-22T11:45:50.347Z,103852.94
2019-02-22T11:46:52.560Z,103854.59
2019-02-22T11:47:54.856Z,103848.67
2019-02-22T11:48:57.077Z,103852.58
2019-02-22T11:49:59.483Z,103850.33
2019-02-22T11:51:01.685Z,103852.58
2019-02-22T11:52:03.881Z,103857.63
2019-02-22T11:53:06.098Z,103865.32
2019-02-22T11:54:08.307Z,103867.91